Time;durP1;ratioP1;P1;durP2;ratioP2;P2;SDS_P1;SDS_P2;PMS_P1;PMS_P2;Temp;Humidity;BMP_temperature;BMP_pressure;BME280_temperature;BME280_humidity;BME280_pressure;Samples;Min_cycle;Max_cycle;Signal;HPM_P1;HPM_P2
2023/10/25 00:18:36;;;;;;;25.38;21.77;;;17.90;99.90;;;;;;4570465;19;20026;-76
2023/10/25 00:20:12;;;;;;;22.50;19.73;;;17.80;99.90;;;;;;4592984;19;20388;-76
2023/10/25 00:21:46;;;;;;;25.15;22.13;;;17.80;99.90;;;;;;4593070;19;20309;-76
2023/10/25 00:23:20;;;;;;;23.10;20.65;;;17.80;99.90;;;;;;4591550;19;20034;-78
2023/10/25 00:24:55;;;;;;;22.38;19.30;;;17.80;99.90;;;;;;4591864;19;20010;-76
2023/10/25 00:26:30;;;;;;;24.25;21.75;;;17.80;99.90;;;;;;4591638;19;20001;-76
2023/10/25 00:28:05;;;;;;;23.42;20.92;;;17.80;99.90;;;;;;4591983;19;20003;-76
2023/10/25 00:29:41;;;;;;;23.83;21.30;;;17.80;99.90;;;;;;4592754;19;20006;-76
2023/10/25 00:31:17;;;;;;;24.55;21.95;;;17.80;99.90;;;;;;4592542;19;20073;-78
2023/10/25 00:32:51;;;;;;;22.77;19.85;;;17.80;99.90;;;;;;4592533;19;20034;-78
2023/10/25 00:34:28;;;;;;;23.33;20.83;;;17.80;99.90;;;;;;4591598;19;20013;-76
2023/10/25 00:36:03;;;;;;;22.60;19.55;;;17.80;99.90;;;;;;4591495;19;20025;-78
2023/10/25 00:37:37;;;;;;;24.20;21.33;;;17.80;99.90;;;;;;4592380;19;20322;-76
2023/10/25 00:39:13;;;;;;;22.17;19.95;;;17.80;99.90;;;;;;4591920;19;20465;-76
2023/10/25 00:40:47;;;;;;;24.83;22.10;;;17.80;99.90;;;;;;4592624;19;20010;-76
2023/10/25 00:42:21;;;;;;;23.23;20.73;;;17.80;99.90;;;;;;4592300;19;20015;-76
2023/10/25 00:43:56;;;;;;;24.52;21.92;;;17.80;99.90;;;;;;4592383;19;20007;-76
2023/10/25 00:45:30;;;;;;;24.92;22.30;;;17.80;99.90;;;;;;4592267;19;20018;-78
2023/10/25 00:47:04;;;;;;;23.58;20.95;;;17.80;99.90;;;;;;4592161;19;20206;-79
2023/10/25 00:48:41;;;;;;;23.73;21.08;;;17.80;99.90;;;;;;4591455;19;20023;-76
2023/10/25 00:50:17;;;;;;;23.85;21.13;;;17.80;99.90;;;;;;4592556;19;20070;-76
2023/10/25 00:51:52;;;;;;;24.30;20.60;;;17.80;99.90;;;;;;4592324;19;20020;-76
2023/10/25 00:53:28;;;;;;;23.58;20.88;;;17.80;99.90;;;;;;4592417;19;20315;-76
2023/10/25 00:55:02;;;;;;;21.88;19.38;;;17.80;99.90;;;;;;4591945;19;20014;-78
2023/10/25 00:56:36;;;;;;;24.50;21.42;;;17.80;99.90;;;;;;4589732;19;20303;-78
2023/10/25 00:58:11;;;;;;;21.58;18.98;;;17.80;99.90;;;;;;4590096;19;20105;-76
2023/10/25 00:59:48;;;;;;;23.27;20.38;;;17.80;99.90;;;;;;4590628;19;19998;-78
2023/10/25 01:01:23;;;;;;;23.00;20.45;;;17.80;99.90;;;;;;4591791;19;20002;-77
2023/10/25 01:02:59;;;;;;;26.23;21.25;;;17.80;99.90;;;;;;4591946;19;20090;-78
2023/10/25 01:04:34;;;;;;;22.70;20.30;;;17.80;99.90;;;;;;4591828;19;20014;-78
2023/10/25 01:06:08;;;;;;;22.05;19.73;;;17.80;99.90;;;;;;4590782;19;20028;-78
2023/10/25 01:07:43;;;;;;;22.73;20.27;;;17.80;99.90;;;;;;4591835;19;20003;-78
2023/10/25 01:09:18;;;;;;;22.02;19.65;;;17.80;99.90;;;;;;4592016;19;20429;-78
2023/10/25 01:10:52;;;;;;;23.48;20.10;;;17.80;99.90;;;;;;4591969;19;20010;-78
2023/10/25 01:12:28;;;;;;;23.50;20.45;;;17.80;99.90;;;;;;4590471;19;20027;-78
2023/10/25 01:14:02;;;;;;;22.08;19.77;;;17.80;99.90;;;;;;4590274;19;20003;-78
2023/10/25 01:15:38;;;;;;;22.35;20.02;;;17.80;99.90;;;;;;4591114;19;20020;-78
2023/10/25 01:17:15;;;;;;;22.42;19.90;;;17.80;99.90;;;;;;4592003;19;20010;-78
2023/10/25 01:18:49;;;;;;;21.88;19.60;;;17.80;99.90;;;;;;4590522;19;20021;-78
2023/10/25 01:20:23;;;;;;;21.45;19.25;;;17.80;99.90;;;;;;4590093;19;20429;-78
2023/10/25 01:22:00;;;;;;;20.88;18.70;;;17.80;99.90;;;;;;4591746;19;20006;-78
2023/10/25 01:23:35;;;;;;;23.10;20.70;;;17.80;99.90;;;;;;4590111;19;20478;-78
2023/10/25 01:25:09;;;;;;;24.10;20.42;;;17.80;99.90;;;;;;4591181;19;20024;-78
2023/10/25 01:26:44;;;;;;;21.58;19.38;;;17.80;99.90;;;;;;4591395;19;19998;-78
2023/10/25 01:28:18;;;;;;;23.98;19.83;;;17.80;99.90;;;;;;4591225;19;20484;-78
2023/10/25 01:29:52;;;;;;;22.90;19.75;;;17.80;99.90;;;;;;4591478;19;20013;-78
2023/10/25 01:31:28;;;;;;;23.05;19.77;;;17.80;99.90;;;;;;4592073;19;20027;-78
2023/10/25 01:33:02;;;;;;;24.08;19.42;;;17.80;99.90;;;;;;4591731;19;20014;-78
2023/10/25 01:34:36;;;;;;;22.00;19.60;;;17.80;99.90;;;;;;4591601;19;20009;-78
2023/10/25 01:36:13;;;;;;;21.70;19.35;;;17.80;99.90;;;;;;4589396;19;20018;-78
2023/10/25 01:37:47;;;;;;;20.83;18.52;;;17.80;99.90;;;;;;4591130;19;20006;-78
2023/10/25 01:39:20;;;;;;;20.50;18.40;;;17.80;99.90;;;;;;4589931;19;20002;-78
2023/10/25 01:40:56;;;;;;;23.02;19.80;;;17.80;99.90;;;;;;4591567;19;20017;-78
2023/10/25 01:42:31;;;;;;;19.58;17.50;;;17.80;99.90;;;;;;4591615;19;20426;-78
2023/10/25 01:44:04;;;;;;;21.33;19.02;;;17.80;99.90;;;;;;4591443;19;20440;-78
2023/10/25 01:45:40;;;;;;;20.05;18.00;;;17.80;99.90;;;;;;4591442;19;20013;-78
2023/10/25 01:47:14;;;;;;;19.33;17.33;;;17.80;99.90;;;;;;4591561;19;20583;-78
2023/10/25 01:48:48;;;;;;;19.48;17.35;;;17.80;99.90;;;;;;4590521;19;20066;-78
2023/10/25 01:50:24;;;;;;;20.55;18.35;;;17.80;99.90;;;;;;4591270;19;20007;-78
2023/10/25 01:52:00;;;;;;;19.20;17.10;;;17.80;99.90;;;;;;4591346;19;20015;-78
2023/10/25 01:53:35;;;;;;;19.63;17.52;;;17.80;99.90;;;;;;4591059;19;20022;-78
2023/10/25 01:55:11;;;;;;;19.60;17.65;;;17.80;99.90;;;;;;4591160;19;20029;-78
2023/10/25 01:56:45;;;;;;;19.30;17.30;;;17.80;99.90;;;;;;4589980;19;20002;-78
2023/10/25 01:58:20;;;;;;;18.98;17.08;;;17.80;99.90;;;;;;4590456;19;20006;-78
2023/10/25 01:59:55;;;;;;;18.85;16.85;;;17.80;99.90;;;;;;4591344;19;20014;-78
2023/10/25 02:01:29;;;;;;;21.95;19.08;;;17.80;99.90;;;;;;4591429;19;20035;-78
2023/10/25 02:03:04;;;;;;;19.15;17.25;;;17.80;99.90;;;;;;4591961;19;20009;-78
2023/10/25 02:04:40;;;;;;;20.15;17.88;;;17.80;99.90;;;;;;4591195;19;20401;-78
2023/10/25 02:06:17;;;;;;;21.45;16.73;;;17.80;99.90;;;;;;4591780;19;20005;-78
2023/10/25 02:07:51;;;;;;;19.13;17.23;;;17.80;99.90;;;;;;4591536;19;20005;-78
2023/10/25 02:09:26;;;;;;;19.33;17.17;;;17.80;99.90;;;;;;4592109;19;20007;-79
2023/10/25 02:11:00;;;;;;;17.48;15.68;;;17.80;99.90;;;;;;4590445;19;20086;-78
2023/10/25 02:12:34;;;;;;;17.83;15.93;;;17.80;99.90;;;;;;4591621;19;20019;-78
2023/10/25 02:14:09;;;;;;;18.05;16.35;;;17.80;99.90;;;;;;4591800;19;20017;-78
2023/10/25 02:15:43;;;;;;;18.73;16.77;;;17.80;99.90;;;;;;4591366;19;20065;-78
2023/10/25 02:17:18;;;;;;;18.73;16.63;;;17.90;99.90;;;;;;4591618;19;20431;-78
2023/10/25 02:18:54;;;;;;;18.83;16.92;;;17.90;99.90;;;;;;4590266;19;20429;-78
2023/10/25 02:20:29;;;;;;;18.15;16.33;;;17.90;99.90;;;;;;4590398;19;20436;-78
2023/10/25 02:22:04;;;;;;;20.17;17.20;;;17.90;99.90;;;;;;4589737;19;20003;-79
2023/10/25 02:23:39;;;;;;;18.77;16.77;;;18.00;99.90;;;;;;4590193;19;20392;-78
2023/10/25 02:25:13;;;;;;;18.30;16.08;;;18.00;99.90;;;;;;4590122;19;20002;-79
2023/10/25 02:26:49;;;;;;;18.05;16.17;;;18.00;99.90;;;;;;4591998;19;20062;-79
2023/10/25 02:28:26;;;;;;;18.58;16.65;;;18.00;99.90;;;;;;4592427;19;20006;-79
2023/10/25 02:30:01;;;;;;;17.65;15.55;;;18.00;99.90;;;;;;4594400;19;20007;-79
2023/10/25 02:31:35;;;;;;;18.58;16.67;;;18.00;99.90;;;;;;4594872;19;20011;-79
2023/10/25 02:33:11;;;;;;;19.98;17.77;;;18.00;99.90;;;;;;4593307;19;20002;-79
2023/10/25 02:34:46;;;;;;;17.75;15.43;;;18.00;99.90;;;;;;4594135;19;20006;-79
2023/10/25 02:36:20;;;;;;;19.52;17.55;;;18.00;99.90;;;;;;4594242;19;20450;-79
2023/10/25 02:37:56;;;;;;;18.23;16.45;;;18.00;99.90;;;;;;4595684;19;20062;-79
2023/10/25 02:39:32;;;;;;;16.90;15.20;;;17.80;99.90;;;;;;4595906;19;20031;-78
2023/10/25 02:41:06;;;;;;;19.75;17.63;;;17.70;99.90;;;;;;4595932;19;20054;-78
2023/10/25 02:42:44;;;;;;;18.30;16.40;;;17.70;99.90;;;;;;4595713;19;19999;-79
2023/10/25 02:44:20;;;;;;;17.67;15.98;;;17.70;99.90;;;;;;4596168;19;20013;-79
2023/10/25 02:45:54;;;;;;;19.45;17.48;;;17.70;99.90;;;;;;4595787;19;20010;-82
2023/10/25 02:47:29;;;;;;;18.38;16.48;;;17.80;99.90;;;;;;4595683;19;20433;-79
2023/10/25 02:49:03;;;;;;;18.15;16.25;;;17.80;99.90;;;;;;4594082;19;20013;-78
2023/10/25 02:50:42;;;;;;;18.85;16.88;;;17.90;99.90;;;;;;4594325;19;20078;-78
2023/10/25 02:52:26;;;;;;;19.17;17.15;;;17.90;99.90;;;;;;4595513;19;20011;-78
2023/10/25 02:54:00;;;;;;;18.05;16.15;;;18.00;99.90;;;;;;4594283;19;20349;-79
2023/10/25 02:55:35;;;;;;;18.73;16.42;;;17.90;99.90;;;;;;4595002;19;20009;-78
2023/10/25 02:57:12;;;;;;;18.90;16.90;;;18.00;99.90;;;;;;4594336;19;20018;-78
2023/10/25 02:58:47;;;;;;;17.95;16.08;;;18.00;99.90;;;;;;4593904;19;20006;-78
2023/10/25 03:00:20;;;;;;;17.77;15.98;;;18.00;99.90;;;;;;4595462;19;20321;-79
2023/10/25 03:01:56;;;;;;;17.35;15.60;;;18.10;99.90;;;;;;4595993;19;20070;-79
2023/10/25 03:03:32;;;;;;;19.50;17.45;;;18.10;99.90;;;;;;4595684;19;20002;-78
2023/10/25 03:05:06;;;;;;;18.10;15.95;;;18.10;99.90;;;;;;4595687;19;20321;-78
2023/10/25 03:06:42;;;;;;;17.05;15.25;;;18.10;99.90;;;;;;4595437;19;20501;-79
2023/10/25 03:08:17;;;;;;;17.63;15.85;;;18.10;99.90;;;;;;4594622;19;20010;-79
2023/10/25 03:09:53;;;;;;;16.67;14.98;;;18.10;99.90;;;;;;4595547;19;20003;-78
2023/10/25 03:11:29;;;;;;;15.95;14.35;;;18.20;99.90;;;;;;4593997;19;20015;-78
2023/10/25 03:13:03;;;;;;;16.95;15.23;;;18.20;99.90;;;;;;4595193;19;20294;-78
2023/10/25 03:14:37;;;;;;;17.75;15.88;;;18.20;99.90;;;;;;4595118;19;20367;-78
2023/10/25 03:16:15;;;;;;;16.27;14.57;;;18.10;99.90;;;;;;4593257;19;20405;-79
2023/10/25 03:17:49;;;;;;;16.40;14.90;;;18.10;99.90;;;;;;4594831;19;20006;-78
2023/10/25 03:19:25;;;;;;;18.88;16.95;;;18.10;99.90;;;;;;4593385;19;20320;-78
2023/10/25 03:21:03;;;;;;;16.20;14.50;;;18.20;99.90;;;;;;4595098;19;20028;-78
2023/10/25 03:22:37;;;;;;;16.63;15.02;;;18.20;99.90;;;;;;4594036;19;20298;-79
2023/10/25 03:24:12;;;;;;;16.23;14.63;;;18.20;99.90;;;;;;4594915;19;20425;-78
2023/10/25 03:25:49;;;;;;;17.02;15.32;;;18.20;99.90;;;;;;4595263;19;20294;-78
2023/10/25 03:27:24;;;;;;;15.10;13.60;;;18.20;99.90;;;;;;4595158;19;20002;-79
2023/10/25 03:28:58;;;;;;;15.27;13.77;;;18.20;99.90;;;;;;4593613;19;20003;-79
2023/10/25 03:30:36;;;;;;;14.70;13.20;;;18.20;99.90;;;;;;4594974;19;20010;-78
2023/10/25 03:32:12;;;;;;;14.43;13.02;;;18.20;99.90;;;;;;4593604;19;20006;-78
2023/10/25 03:33:48;;;;;;;15.38;13.77;;;18.20;99.90;;;;;;4594682;19;20010;-78
2023/10/25 03:35:23;;;;;;;14.52;12.35;;;18.20;99.90;;;;;;4594811;19;20032;-78
2023/10/25 03:36:59;;;;;;;14.27;12.77;;;18.30;99.90;;;;;;4593322;19;20005;-78
2023/10/25 03:38:34;;;;;;;13.00;11.70;;;18.20;99.90;;;;;;4593422;19;20006;-78
2023/10/25 03:40:09;;;;;;;14.27;12.88;;;18.30;99.90;;;;;;4594727;19;20014;-79
2023/10/25 03:41:49;;;;;;;13.80;12.50;;;18.30;99.90;;;;;;4593312;19;20066;-79
2023/10/25 03:43:24;;;;;;;13.88;12.38;;;18.20;99.90;;;;;;4594356;19;20013;-77
2023/10/25 03:45:01;;;;;;;13.45;12.15;;;18.30;99.90;;;;;;4594686;19;19998;-79
2023/10/25 03:46:35;;;;;;;13.77;12.38;;;18.30;99.90;;;;;;4594593;19;20405;-78
2023/10/25 03:48:10;;;;;;;13.43;12.13;;;18.30;99.90;;;;;;4594057;19;20320;-79
2023/10/25 03:49:45;;;;;;;14.02;12.68;;;18.40;99.90;;;;;;4594391;19;20035;-79
2023/10/25 03:51:21;;;;;;;13.77;12.40;;;18.50;99.90;;;;;;4594721;19;20002;-79
2023/10/25 03:52:55;;;;;;;14.25;12.75;;;18.60;99.90;;;;;;4594709;19;20002;-79
2023/10/25 03:54:30;;;;;;;13.10;11.80;;;18.70;99.90;;;;;;4594419;19;19999;-78
2023/10/25 03:56:05;;;;;;;12.90;11.70;;;18.70;99.90;;;;;;4593602;19;20018;-79
2023/10/25 03:57:40;;;;;;;13.35;12.05;;;18.80;99.90;;;;;;4594563;19;20009;-78
2023/10/25 03:59:15;;;;;;;13.70;12.38;;;18.90;99.90;;;;;;4594637;19;20028;-78
2023/10/25 04:00:57;;;;;;;12.63;11.43;;;18.90;99.90;;;;;;4594244;19;20002;-79
2023/10/25 04:02:31;;;;;;;13.55;12.13;;;19.00;99.90;;;;;;4594670;19;20007;-79
2023/10/25 04:04:07;;;;;;;13.05;11.80;;;19.20;99.90;;;;;;4594286;19;20421;-79
2023/10/25 04:05:42;;;;;;;13.55;12.15;;;19.20;99.90;;;;;;4594177;19;20009;-79
2023/10/25 04:07:16;;;;;;;13.02;11.73;;;19.20;99.90;;;;;;4593339;19;20417;-79
2023/10/25 04:08:52;;;;;;;12.38;11.00;;;19.20;99.90;;;;;;4592778;19;20031;-79
2023/10/25 04:10:29;;;;;;;13.73;12.40;;;19.30;99.90;;;;;;4594350;19;20002;-80
2023/10/25 04:12:03;;;;;;;13.43;12.07;;;19.30;99.90;;;;;;4592695;19;20046;-82
2023/10/25 04:13:39;;;;;;;13.15;11.93;;;19.30;99.90;;;;;;4593768;19;20007;-79
2023/10/25 04:15:13;;;;;;;14.13;12.70;;;19.30;99.90;;;;;;4592888;19;19999;-77
2023/10/25 04:16:47;;;;;;;11.38;10.18;;;19.30;99.90;;;;;;4592412;19;20058;-77
2023/10/25 04:18:24;;;;;;;11.23;10.05;;;19.40;99.90;;;;;;4592961;19;20011;-79
2023/10/25 04:19:58;;;;;;;11.43;10.32;;;19.50;99.90;;;;;;4592492;19;20330;-78
2023/10/25 04:21:32;;;;;;;12.10;10.90;;;19.40;99.90;;;;;;4593609;19;19999;-78
2023/10/25 04:23:07;;;;;;;12.40;11.20;;;19.30;99.90;;;;;;4594260;19;20014;-78
2023/10/25 04:24:41;;;;;;;13.38;12.02;;;19.30;99.90;;;;;;4592383;19;20025;-78
2023/10/25 04:26:15;;;;;;;12.18;10.88;;;19.30;99.90;;;;;;4593334;19;20040;-78
2023/10/25 04:27:52;;;;;;;11.98;10.77;;;19.20;99.90;;;;;;4593446;19;20015;-78
2023/10/25 04:29:27;;;;;;;12.35;11.15;;;19.20;99.90;;;;;;4593887;19;20003;-78
2023/10/25 04:31:01;;;;;;;11.77;10.65;;;19.20;99.90;;;;;;4593845;19;20008;-78
2023/10/25 04:32:36;;;;;;;12.68;11.38;;;19.10;99.90;;;;;;4593882;19;20009;-78
2023/10/25 04:34:22;;;;;;;13.63;12.23;;;19.10;99.90;;;;;;4593796;19;20014;-78
2023/10/25 04:36:02;;;;;;;12.82;11.52;;;19.10;99.90;;;;;;4593292;19;20003;-78
2023/10/25 04:37:39;;;;;;;13.10;11.80;;;19.10;99.90;;;;;;4593817;19;20006;-78
2023/10/25 04:39:15;;;;;;;13.13;11.82;;;19.10;99.90;;;;;;4593794;19;20425;-78
2023/10/25 04:40:50;;;;;;;12.52;11.32;;;19.00;99.90;;;;;;4593680;19;20002;-78
2023/10/25 04:42:25;;;;;;;12.52;11.23;;;19.00;99.90;;;;;;4593738;19;20317;-78
2023/10/25 04:43:59;;;;;;;13.05;11.80;;;19.00;99.90;;;;;;4593421;19;20038;-78
2023/10/25 04:45:36;;;;;;;12.45;11.20;;;18.90;99.90;;;;;;4593561;19;20024;-78
2023/10/25 04:47:13;;;;;;;13.23;11.93;;;18.90;99.90;;;;;;4593363;19;20066;-78
2023/10/25 04:48:51;;;;;;;13.05;11.75;;;18.90;99.90;;;;;;4591976;19;20006;-78
2023/10/25 04:50:38;;;;;;;13.20;11.93;;;18.90;99.90;;;;;;4589733;19;20046;-78
2023/10/25 04:52:13;;;;;;;13.30;12.00;;;18.90;99.90;;;;;;4590839;19;20002;-78
2023/10/25 04:53:47;;;;;;;12.38;10.98;;;18.80;99.90;;;;;;4591253;19;20003;-78
2023/10/25 04:55:23;;;;;;;13.68;12.32;;;18.80;99.90;;;;;;4591075;19;20300;-78
2023/10/25 04:57:01;;;;;;;13.30;12.00;;;18.80;99.90;;;;;;4588797;19;20006;-78
2023/10/25 04:58:35;;;;;;;13.50;12.13;;;18.80;99.90;;;;;;4589872;19;20018;-78
2023/10/25 05:00:11;;;;;;;14.02;12.63;;;18.80;99.90;;;;;;4590832;19;20036;-78
2023/10/25 05:01:46;;;;;;;13.00;11.80;;;18.80;99.90;;;;;;4589523;19;20490;-78
2023/10/25 05:03:20;;;;;;;13.40;11.93;;;18.70;99.90;;;;;;4590773;19;20428;-78
2023/10/25 05:04:54;;;;;;;13.05;11.73;;;18.70;99.90;;;;;;4589666;19;20027;-78
2023/10/25 05:06:33;;;;;;;13.43;12.13;;;18.70;99.90;;;;;;4593005;19;20006;-78
2023/10/25 05:08:11;;;;;;;13.60;12.27;;;18.70;99.90;;;;;;4591362;19;20007;-78
2023/10/25 05:09:46;;;;;;;13.10;11.70;;;18.70;99.90;;;;;;4592551;19;20429;-78
2023/10/25 05:11:21;;;;;;;14.73;13.18;;;18.60;99.90;;;;;;4593090;19;20006;-78
2023/10/25 05:12:57;;;;;;;12.45;11.20;;;18.70;99.90;;;;;;4591431;19;19998;-78
2023/10/25 05:14:33;;;;;;;11.65;10.18;;;18.60;99.90;;;;;;4592372;19;19998;-78
2023/10/25 05:16:09;;;;;;;11.75;10.63;;;18.70;99.90;;;;;;4592351;19;19998;-78
2023/10/25 05:17:44;;;;;;;11.95;10.75;;;18.60;99.90;;;;;;4591436;19;19999;-78
2023/10/25 05:19:18;;;;;;;12.68;11.48;;;18.60;99.90;;;;;;4591191;19;20011;-78
2023/10/25 05:20:58;;;;;;;13.18;11.02;;;18.60;99.90;;;;;;4592991;19;20425;-78
2023/10/25 05:22:37;;;;;;;12.80;11.48;;;18.60;99.90;;;;;;4592617;19;20006;-78
2023/10/25 05:24:12;;;;;;;12.07;10.80;;;18.60;99.90;;;;;;4591201;19;20062;-78
2023/10/25 05:25:47;;;;;;;12.35;11.15;;;18.60;99.90;;;;;;4592197;19;20006;-78
2023/10/25 05:27:23;;;;;;;12.85;11.55;;;18.60;99.90;;;;;;4592420;19;20421;-78
2023/10/25 05:28:59;;;;;;;12.73;11.48;;;18.50;99.90;;;;;;4591493;19;20085;-78
2023/10/25 05:30:35;;;;;;;14.50;13.10;;;18.50;99.90;;;;;;4591167;19;20007;-78
2023/10/25 05:32:09;;;;;;;12.25;10.93;;;18.50;99.90;;;;;;4592348;19;20002;-78
2023/10/25 05:33:45;;;;;;;13.27;11.88;;;18.50;99.90;;;;;;4591330;19;20314;-77
2023/10/25 05:35:21;;;;;;;12.93;11.63;;;18.50;99.90;;;;;;4592022;19;20039;-78
2023/10/25 05:36:55;;;;;;;11.05;9.95;;;18.60;99.90;;;;;;4591493;19;19999;-78
2023/10/25 05:38:30;;;;;;;12.30;11.10;;;18.60;99.90;;;;;;4591728;19;20413;-78
2023/10/25 05:40:07;;;;;;;12.82;11.52;;;18.70;99.90;;;;;;4592303;19;20017;-77
2023/10/25 05:41:42;;;;;;;13.30;11.98;;;18.80;99.90;;;;;;4592265;19;20038;-77
2023/10/25 05:43:16;;;;;;;11.57;10.38;;;18.90;99.90;;;;;;4590772;19;20010;-77
2023/10/25 05:44:54;;;;;;;12.98;11.68;;;19.00;99.90;;;;;;4590904;19;20469;-77
2023/10/25 05:46:27;;;;;;;12.63;11.43;;;19.00;99.90;;;;;;4592125;19;20006;-77
2023/10/25 05:48:02;;;;;;;12.05;10.85;;;19.10;99.90;;;;;;4591773;19;20006;-77
2023/10/25 05:49:39;;;;;;;12.00;10.88;;;19.20;99.90;;;;;;4592115;19;20074;-77
2023/10/25 05:51:14;;;;;;;12.20;11.00;;;19.30;99.90;;;;;;4590981;19;20009;-77
2023/10/25 05:52:48;;;;;;;12.70;11.40;;;19.30;99.90;;;;;;4591838;19;20328;-77
2023/10/25 05:54:25;;;;;;;12.10;10.90;;;19.40;99.90;;;;;;4592322;19;20007;-77
2023/10/25 05:56:01;;;;;;;11.60;10.50;;;19.50;99.90;;;;;;4591864;19;20425;-77
2023/10/25 05:57:35;;;;;;;11.98;10.77;;;19.50;99.90;;;;;;4592093;19;20006;-77
2023/10/25 05:59:12;;;;;;;11.15;10.05;;;19.60;99.90;;;;;;4590723;19;20018;-77
2023/10/25 06:00:52;;;;;;;11.35;10.30;;;19.70;99.90;;;;;;4591950;19;19999;-77
2023/10/25 06:02:28;;;;;;;11.25;10.18;;;19.80;99.90;;;;;;4595957;19;20010;-77
2023/10/25 06:04:05;;;;;;;10.88;9.77;;;19.90;99.90;;;;;;4595614;19;20014;-77
2023/10/25 06:05:39;;;;;;;11.68;10.48;;;19.90;99.90;;;;;;4595501;19;20444;-77
2023/10/25 06:07:14;;;;;;;10.95;9.85;;;20.00;99.90;;;;;;4596181;19;20021;-77
2023/10/25 06:08:49;;;;;;;10.70;9.55;;;20.10;99.90;;;;;;4595080;19;20018;-77
2023/10/25 06:10:25;;;;;;;11.35;10.18;;;20.10;99.90;;;;;;4596742;19;20419;-77
2023/10/25 06:12:00;;;;;;;10.20;9.20;;;20.20;99.90;;;;;;4596420;19;19998;-77
2023/10/25 06:13:36;;;;;;;10.02;9.05;;;20.30;99.90;;;;;;4596421;19;20002;-77
2023/10/25 06:15:12;;;;;;;9.38;8.48;;;20.30;99.90;;;;;;4596353;19;20435;-77
2023/10/25 06:16:46;;;;;;;10.05;9.15;;;20.30;99.90;;;;;;4595157;19;19999;-78
2023/10/25 06:18:22;;;;;;;9.80;8.85;;;20.40;99.90;;;;;;4595484;19;20016;-77
2023/10/25 06:19:57;;;;;;;10.38;9.38;;;20.40;99.90;;;;;;4595215;19;20014;-77
2023/10/25 06:21:31;;;;;;;9.18;8.27;;;20.40;99.90;;;;;;4594743;19;20014;-77
2023/10/25 06:23:07;;;;;;;8.93;7.75;;;20.40;99.90;;;;;;4595858;19;20305;-77
2023/10/25 06:24:41;;;;;;;9.07;8.18;;;20.40;99.90;;;;;;4596532;19;20449;-77
2023/10/25 06:26:14;;;;;;;9.07;8.18;;;20.50;99.90;;;;;;4596360;19;20003;-77
2023/10/25 06:27:51;;;;;;;9.20;8.30;;;20.40;99.90;;;;;;4595876;19;20070;-77
2023/10/25 06:29:26;;;;;;;9.80;8.80;;;20.50;99.90;;;;;;4596351;19;20436;-77
2023/10/25 06:30:59;;;;;;;9.50;8.60;;;20.50;99.90;;;;;;4596021;19;20003;-77
2023/10/25 06:32:35;;;;;;;10.18;9.15;;;20.50;99.90;;;;;;4596102;19;20029;-77
2023/10/25 06:34:09;;;;;;;9.25;8.27;;;20.50;99.90;;;;;;4594940;19;20027;-77
2023/10/25 06:35:45;;;;;;;8.95;8.05;;;20.40;99.90;;;;;;4595458;19;20010;-77
2023/10/25 06:37:20;;;;;;;8.52;7.72;;;20.40;99.90;;;;;;4596233;19;20007;-77
2023/10/25 06:39:17;;;;;;;9.27;8.32;;;20.30;99.90;;;;;;4594011;19;20015;-77
2023/10/25 06:40:51;;;;;;;8.35;7.53;;;20.30;99.90;;;;;;4593663;19;20441;-77
2023/10/25 06:42:26;;;;;;;8.48;7.78;;;20.20;99.90;;;;;;4595297;19;20002;-77
2023/10/25 06:44:00;;;;;;;8.93;8.07;;;20.20;99.90;;;;;;4595694;19;20433;-77
2023/10/25 06:45:34;;;;;;;9.07;7.65;;;20.10;99.90;;;;;;4595708;19;20029;-77
2023/10/25 06:47:10;;;;;;;9.23;8.32;;;20.10;99.90;;;;;;4595631;19;20007;-77
2023/10/25 06:48:45;;;;;;;8.50;7.60;;;20.00;99.90;;;;;;4594316;19;19999;-78
2023/10/25 06:50:20;;;;;;;8.80;7.97;;;20.00;99.90;;;;;;4594999;19;20003;-77
2023/10/25 06:51:56;;;;;;;8.88;7.97;;;19.90;99.90;;;;;;4595433;19;20003;-77
2023/10/25 06:53:31;;;;;;;9.27;8.32;;;19.90;99.90;;;;;;4594989;19;20417;-77
2023/10/25 06:55:05;;;;;;;9.02;8.18;;;19.80;99.90;;;;;;4595029;19;20003;-77
2023/10/25 06:56:41;;;;;;;10.25;8.75;;;19.80;99.90;;;;;;4593603;19;20291;-77
2023/10/25 06:58:15;;;;;;;8.40;7.47;;;19.80;99.90;;;;;;4594229;19;20350;-77
2023/10/25 06:59:49;;;;;;;8.88;7.63;;;19.80;99.90;;;;;;4594599;19;20002;-77
2023/10/25 07:01:27;;;;;;;8.93;8.02;;;19.80;99.90;;;;;;4595217;19;20410;-77
2023/10/25 07:03:04;;;;;;;9.30;8.25;;;19.80;99.90;;;;;;4594637;19;20006;-74
2023/10/25 07:04:39;;;;;;;8.30;7.50;;;19.80;99.90;;;;;;4593165;19;20015;-77
2023/10/25 07:06:18;;;;;;;9.43;8.52;;;19.80;99.90;;;;;;4593309;19;20021;-77
2023/10/25 07:07:53;;;;;;;8.85;7.95;;;19.80;99.90;;;;;;4594293;19;20035;-77
2023/10/25 07:09:29;;;;;;;8.07;7.03;;;19.80;99.90;;;;;;4594813;19;20405;-79
2023/10/25 07:11:06;;;;;;;7.85;7.05;;;19.80;99.90;;;;;;4594674;19;20101;-77
2023/10/25 07:12:41;;;;;;;8.80;7.90;;;19.80;99.90;;;;;;4592148;19;20465;-78
2023/10/25 07:14:15;;;;;;;8.50;7.60;;;19.80;99.90;;;;;;4594060;19;20491;-77
2023/10/25 07:15:50;;;;;;;8.30;7.35;;;19.80;99.90;;;;;;4594256;19;20005;-77
2023/10/25 07:17:31;;;;;;;7.95;7.13;;;19.70;99.90;;;;;;4594581;19;20021;-77
2023/10/25 07:19:05;;;;;;;8.38;7.57;;;19.70;99.90;;;;;;4591077;19;20020;-77
2023/10/25 07:20:42;;;;;;;8.20;7.40;;;19.70;99.90;;;;;;4593806;19;20010;-77
2023/10/25 07:22:16;;;;;;;7.82;7.03;;;19.60;99.90;;;;;;4594148;19;20006;-78
2023/10/25 07:23:50;;;;;;;8.25;7.45;;;19.60;99.90;;;;;;4593893;19;20108;-77
2023/10/25 07:25:26;;;;;;;7.45;6.65;;;19.60;99.90;;;;;;4593858;19;20006;-77
2023/10/25 07:27:00;;;;;;;8.13;7.32;;;19.60;99.90;;;;;;4594022;19;20373;-77
2023/10/25 07:28:34;;;;;;;8.05;7.25;;;19.50;99.90;;;;;;4593026;19;19999;-77
2023/10/25 07:30:11;;;;;;;9.43;7.55;;;19.50;99.90;;;;;;4593869;19;20006;-77
2023/10/25 07:31:46;;;;;;;8.10;7.28;;;19.50;99.90;;;;;;4593922;19;20006;-77
2023/10/25 07:33:22;;;;;;;7.68;6.93;;;19.50;99.90;;;;;;4594025;19;20010;-77
2023/10/25 07:34:59;;;;;;;8.00;7.20;;;19.50;99.90;;;;;;4594398;19;20029;-78
2023/10/25 07:36:34;;;;;;;11.15;7.45;;;19.40;99.90;;;;;;4591756;19;20042;-78
2023/10/25 07:38:07;;;;;;;8.43;7.43;;;19.40;99.90;;;;;;4592773;19;20372;-78
2023/10/25 07:39:43;;;;;;;8.18;7.38;;;19.40;99.90;;;;;;4593558;19;20003;-77
2023/10/25 07:41:17;;;;;;;8.23;7.43;;;19.30;99.90;;;;;;4594110;19;20006;-79
2023/10/25 07:42:51;;;;;;;9.10;7.22;;;19.30;99.90;;;;;;4593739;19;20009;-78
2023/10/25 07:44:28;;;;;;;8.18;7.30;;;19.30;99.90;;;;;;4593672;19;20074;-77
2023/10/25 07:46:01;;;;;;;7.88;7.03;;;19.20;99.90;;;;;;4594141;19;20321;-77
2023/10/25 07:47:35;;;;;;;8.43;7.53;;;19.20;99.90;;;;;;4594555;19;19999;-77
2023/10/25 07:49:11;;;;;;;7.55;6.80;;;19.20;99.90;;;;;;4593242;19;20006;-78
2023/10/25 07:50:45;;;;;;;7.50;6.63;;;19.20;99.90;;;;;;4594742;19;20009;-78
2023/10/25 07:52:20;;;;;;;7.50;6.80;;;19.20;99.90;;;;;;4594718;19;20006;-78
2023/10/25 07:53:57;;;;;;;8.27;7.45;;;19.20;99.90;;;;;;4594464;19;20428;-78
2023/10/25 07:55:30;;;;;;;7.40;6.30;;;19.10;99.90;;;;;;4594419;19;20014;-77
2023/10/25 07:57:06;;;;;;;9.05;7.65;;;19.10;99.90;;;;;;4593036;19;19999;-77
2023/10/25 07:58:41;;;;;;;8.82;7.55;;;19.10;99.90;;;;;;4593635;19;20011;-78
2023/10/25 08:00:15;;;;;;;8.85;7.60;;;19.00;99.90;;;;;;4594210;19;19998;-78
2023/10/25 08:01:51;;;;;;;8.88;7.35;;;19.10;99.90;;;;;;4594184;19;20029;-77
2023/10/25 08:03:28;;;;;;;7.53;6.70;;;19.00;99.90;;;;;;4594564;19;20014;-77
2023/10/25 08:05:04;;;;;;;8.80;7.35;;;19.00;99.90;;;;;;4594096;19;20070;-77
2023/10/25 08:06:38;;;;;;;8.15;7.15;;;19.00;99.90;;;;;;4594034;19;20013;-77
2023/10/25 08:08:14;;;;;;;8.23;7.43;;;19.00;99.90;;;;;;4593811;19;20010;-77
2023/10/25 08:09:48;;;;;;;8.60;7.55;;;18.90;99.90;;;;;;4594070;19;20002;-77
2023/10/25 08:11:23;;;;;;;8.48;7.03;;;18.90;99.90;;;;;;4594101;19;20077;-77
2023/10/25 08:12:58;;;;;;;9.95;7.40;;;18.90;99.90;;;;;;4594109;19;20021;-77
2023/10/25 08:14:33;;;;;;;9.05;7.18;;;18.90;99.90;;;;;;4594220;19;20002;-77
2023/10/25 08:16:07;;;;;;;7.20;6.47;;;18.90;99.90;;;;;;4593561;19;20010;-78
2023/10/25 08:17:42;;;;;;;9.25;7.38;;;18.90;99.90;;;;;;4594265;19;20010;-78
2023/10/25 08:19:19;;;;;;;7.82;6.75;;;18.80;99.90;;;;;;4592650;19;20444;-77
2023/10/25 08:20:54;;;;;;;8.60;7.60;;;18.90;99.90;;;;;;4594171;19;20519;-78
2023/10/25 08:22:31;;;;;;;6.88;6.18;;;18.80;99.90;;;;;;4594235;19;20467;-77
2023/10/25 08:24:07;;;;;;;8.45;6.45;;;18.80;99.90;;;;;;4591794;19;20350;-78
2023/10/25 08:25:42;;;;;;;8.85;6.47;;;18.80;99.90;;;;;;4593754;19;20002;-78